createdAt,value
2023-05-02T00:00:37.709Z,69.64
2023-05-02T00:03:05.237Z,70.05
2023-05-02T00:05:32.030Z,70.32
2023-05-02T00:07:58.782Z,70.55
2023-05-02T00:10:25.331Z,70.56
2023-05-02T00:12:51.813Z,71.19
2023-05-02T00:15:18.428Z,71.32
2023-05-02T00:17:44.916Z,71.32
2023-05-02T00:20:12.340Z,71.65
2023-05-02T00:22:39.193Z,71.39
2023-05-02T00:25:06.492Z,71.24
2023-05-02T00:27:33.310Z,71.35
2023-05-02T00:30:01.102Z,71.45
2023-05-02T00:32:28.272Z,71.37
2023-05-02T00:34:54.885Z,71.76
2023-05-02T00:37:21.557Z,72.04
2023-05-02T00:39:48.133Z,72.36
2023-05-02T00:42:15.471Z,72.11
2023-05-02T00:44:42.001Z,72.36
2023-05-02T00:47:08.618Z,72.32
2023-05-02T00:49:35.122Z,72.65
2023-05-02T00:52:02.562Z,72.65
2023-05-02T00:54:31.023Z,72.70
2023-05-02T00:56:57.584Z,72.69
2023-05-02T00:59:24.680Z,72.67
2023-05-02T01:02:19.625Z,72.39
2023-05-02T01:05:00.051Z,72.00
2023-05-02T01:07:46.159Z,71.89
2023-05-02T01:10:34.330Z,71.76
2023-05-02T01:13:09.997Z,71.72
2023-05-02T01:15:39.253Z,71.97
2023-05-02T01:18:09.104Z,71.73
2023-05-02T01:20:39.139Z,71.83
2023-05-02T01:23:33.076Z,71.59
2023-05-02T01:26:21.384Z,71.23
2023-05-02T01:29:08.367Z,71.54
2023-05-02T01:31:37.896Z,71.40
2023-05-02T01:34:10.350Z,71.75
2023-05-02T01:36:43.478Z,71.64
2023-05-02T01:39:13.375Z,72.56
2023-05-02T01:41:41.776Z,72.39
2023-05-02T01:44:09.955Z,72.80
2023-05-02T01:46:40.240Z,73.19
2023-05-02T01:49:09.207Z,73.67
2023-05-02T01:51:46.149Z,74.11
2023-05-02T01:54:15.226Z,74.39
2023-05-02T01:56:43.473Z,74.71
2023-05-02T01:59:14.306Z,74.74
2023-05-02T02:01:43.547Z,74.88
2023-05-02T02:04:13.425Z,75.16
2023-05-02T02:06:44.328Z,75.14
2023-05-02T02:09:11.010Z,75.96
2023-05-02T02:11:46.558Z,75.96
2023-05-02T02:14:20.253Z,76.12
2023-05-02T02:16:47.092Z,76.00
2023-05-02T02:19:15.471Z,76.42
2023-05-02T02:21:48.157Z,76.62
2023-05-02T02:24:17.759Z,76.98
2023-05-02T02:26:44.471Z,77.39
2023-05-02T02:29:11.358Z,77.51
2023-05-02T02:31:39.771Z,77.38
2023-05-02T02:34:06.717Z,77.93
2023-05-02T02:36:39.704Z,77.31
2023-05-02T02:39:13.512Z,77.55
2023-05-02T02:42:07.513Z,77.82
2023-05-02T02:44:47.790Z,78.04
2023-05-02T02:47:41.367Z,78.79
2023-05-02T02:50:10.914Z,78.38
2023-05-02T02:52:48.910Z,78.45
2023-05-02T02:55:46.807Z,78.04
2023-05-02T02:58:46.326Z,77.43
2023-05-02T03:01:19.786Z,77.54
2023-05-02T03:03:48.278Z,76.92
2023-05-02T03:06:17.214Z,76.28
2023-05-02T03:08:44.901Z,76.25
2023-05-02T03:11:16.531Z,76.45
2023-05-02T03:13:43.137Z,76.85
2023-05-02T03:16:32.268Z,77.39
2023-05-02T03:18:59.460Z,77.00
2023-05-02T03:21:26.014Z,77.52
2023-05-02T03:23:54.020Z,77.68
2023-05-02T03:26:21.262Z,78.06
2023-05-02T03:28:48.924Z,77.94
2023-05-02T03:31:21.877Z,78.54
2023-05-02T03:33:49.703Z,78.67
2023-05-02T03:36:16.579Z,79.51
2023-05-02T03:38:43.036Z,79.26
2023-05-02T03:41:12.279Z,79.52
2023-05-02T03:43:39.211Z,80.07
2023-05-02T03:46:08.886Z,80.92
2023-05-02T03:48:39.020Z,80.75
2023-05-02T03:51:10.034Z,82.23
2023-05-02T03:53:42.412Z,81.33
2023-05-02T03:56:09.374Z,82.02
2023-05-02T03:58:46.512Z,83.33
2023-05-02T04:01:15.359Z,83.34
2023-05-02T04:03:43.745Z,83.31
2023-05-02T04:06:13.325Z,85.54
2023-05-02T04:08:42.509Z,86.44
2023-05-02T04:11:09.480Z,86.99
2023-05-02T04:13:36.225Z,87.36
2023-05-02T04:16:02.888Z,87.15
2023-05-02T04:18:32.489Z,87.52
2023-05-02T04:21:00.553Z,87.87
2023-05-02T04:23:27.113Z,87.92
2023-05-02T04:25:58.742Z,88.65
2023-05-02T04:28:36.236Z,88.58
2023-05-02T04:31:04.202Z,88.21
2023-05-02T04:33:31.775Z,87.86
2023-05-02T04:35:59.173Z,88.32
2023-05-02T04:38:25.837Z,88.18
2023-05-02T04:40:52.508Z,88.47
2023-05-02T04:43:24.914Z,88.72
2023-05-02T04:45:56.847Z,88.22
2023-05-02T04:48:27.688Z,89.00
2023-05-02T04:50:54.264Z,89.09
2023-05-02T04:53:24.200Z,89.22
2023-05-02T04:55:50.945Z,89.16
2023-05-02T04:58:17.587Z,88.66
2023-05-02T05:00:47.961Z,88.82
2023-05-02T05:03:14.709Z,89.30
2023-05-02T05:05:41.452Z,89.15
2023-05-02T05:08:12.141Z,89.20
2023-05-02T05:10:40.896Z,89.91
2023-05-02T05:13:08.507Z,89.95
2023-05-02T05:15:35.157Z,90.59
2023-05-02T05:18:03.081Z,90.68
2023-05-02T05:20:29.674Z,92.14
2023-05-02T05:22:58.723Z,92.02
2023-05-02T05:25:27.628Z,92.51
2023-05-02T05:27:56.349Z,92.34
2023-05-02T05:30:25.081Z,93.00
2023-05-02T05:32:53.418Z,93.41
2023-05-02T05:35:21.247Z,94.17
2023-05-02T05:37:47.727Z,95.23
2023-05-02T05:40:16.978Z,95.93
2023-05-02T05:42:47.781Z,96.40
2023-05-02T05:45:21.581Z,98.54
2023-05-02T05:47:48.334Z,100.00
2023-05-02T05:50:15.045Z,100.00
2023-05-02T05:52:43.348Z,100.00
2023-05-02T05:55:10.268Z,100.00
2023-05-02T05:57:37.306Z,100.00
2023-05-02T06:00:04.797Z,100.00
2023-05-02T06:02:42.363Z,100.00
2023-05-02T06:05:14.925Z,100.00
2023-05-02T06:07:42.692Z,100.00
2023-05-02T06:10:10.958Z,100.00
2023-05-02T06:12:39.433Z,100.00
2023-05-02T06:15:07.630Z,100.00
2023-05-02T06:17:35.041Z,100.00
2023-05-02T06:20:01.918Z,100.00
2023-05-02T06:22:28.726Z,100.00
2023-05-02T06:24:56.076Z,100.00
2023-05-02T06:27:22.577Z,100.00
2023-05-02T06:29:52.543Z,100.00
2023-05-02T06:32:19.382Z,100.00
2023-05-02T06:34:46.299Z,100.00
2023-05-02T06:37:12.832Z,100.00
2023-05-02T06:39:39.352Z,100.00
2023-05-02T06:42:06.002Z,100.00
2023-05-02T06:44:33.807Z,100.00
2023-05-02T06:47:00.553Z,100.00
2023-05-02T06:49:27.100Z,100.00
2023-05-02T06:51:53.625Z,100.00
2023-05-02T06:54:21.788Z,100.00
2023-05-02T06:56:48.386Z,100.00
2023-05-02T06:59:16.899Z,100.00
2023-05-02T07:01:46.566Z,100.00
2023-05-02T07:04:13.214Z,100.00
2023-05-02T07:06:40.896Z,100.00
2023-05-02T07:09:07.553Z,100.00
2023-05-02T07:11:34.136Z,100.00
2023-05-02T07:14:00.730Z,100.00
2023-05-02T07:16:28.022Z,97.38
2023-05-02T07:18:54.587Z,96.60
2023-05-02T07:21:21.291Z,96.78
2023-05-02T07:23:47.890Z,97.03
2023-05-02T07:26:14.444Z,95.26
2023-05-02T07:28:41.140Z,96.54
2023-05-02T07:31:07.728Z,95.52
2023-05-02T07:33:34.595Z,94.47
2023-05-02T07:36:02.780Z,94.83
2023-05-02T07:38:29.467Z,93.60
2023-05-02T07:40:59.382Z,94.26
2023-05-02T07:43:26.449Z,90.63
2023-05-02T07:45:53.069Z,87.40
2023-05-02T07:48:20.286Z,87.29
2023-05-02T07:50:46.874Z,86.03
2023-05-02T07:53:13.408Z,85.56
2023-05-02T07:55:39.886Z,82.63
2023-05-02T07:58:06.424Z,83.71
2023-05-02T08:00:33.011Z,82.25
2023-05-02T08:02:59.780Z,81.00
2023-05-02T08:05:26.734Z,78.52
2023-05-02T08:07:53.343Z,79.71
2023-05-02T08:10:20.258Z,77.87
2023-05-02T08:12:46.800Z,75.60
2023-05-02T08:15:16.132Z,74.14
2023-05-02T08:17:42.706Z,74.37
2023-05-02T08:20:09.596Z,74.96
2023-05-02T08:22:36.120Z,72.89
2023-05-02T08:25:02.735Z,70.79
2023-05-02T08:27:29.314Z,72.85
2023-05-02T08:29:57.389Z,72.77
2023-05-02T08:32:25.574Z,73.68
2023-05-02T08:34:55.990Z,73.92
2023-05-02T08:37:23.102Z,72.12
2023-05-02T08:39:49.642Z,71.39
2023-05-02T08:42:16.180Z,69.39
2023-05-02T08:44:42.789Z,69.04
2023-05-02T08:47:13.589Z,70.29
2023-05-02T08:49:41.150Z,67.19
2023-05-02T08:52:09.318Z,66.95
2023-05-02T08:54:37.783Z,67.15
2023-05-02T08:57:05.629Z,66.35
2023-05-02T08:59:32.118Z,67.13
2023-05-02T09:02:17.973Z,67.25
2023-05-02T09:04:47.957Z,68.20
2023-05-02T09:07:15.365Z,66.57
2023-05-02T09:09:41.947Z,66.04
2023-05-02T09:12:08.438Z,67.24
2023-05-02T09:14:35.009Z,66.53
2023-05-02T09:17:01.985Z,66.87
2023-05-02T09:19:28.777Z,66.40
2023-05-02T09:22:01.601Z,66.53
2023-05-02T09:24:29.599Z,63.90
2023-05-02T09:27:02.648Z,63.73
2023-05-02T09:29:37.749Z,62.48
2023-05-02T09:32:05.759Z,61.51
2023-05-02T09:34:32.781Z,61.04
2023-05-02T09:36:59.265Z,59.94
2023-05-02T09:39:30.949Z,60.86
2023-05-02T09:41:58.673Z,60.37
2023-05-02T09:44:27.075Z,58.99
2023-05-02T09:46:55.244Z,57.86
2023-05-02T09:49:45.438Z,57.32
2023-05-02T09:52:16.715Z,58.31
2023-05-02T09:54:43.695Z,59.41
2023-05-02T09:57:11.256Z,58.36
2023-05-02T10:02:07.537Z,57.69
2023-05-02T10:04:34.799Z,58.48
2023-05-02T10:07:03.412Z,58.63
2023-05-02T10:09:32.863Z,57.49
2023-05-02T10:12:06.661Z,57.29
2023-05-02T10:14:39.811Z,55.81
2023-05-02T10:17:13.963Z,55.35
2023-05-02T10:20:06.706Z,56.27
2023-05-02T10:22:36.961Z,55.04
2023-05-02T10:25:04.355Z,55.16
2023-05-02T10:27:32.610Z,54.98
2023-05-02T10:30:01.108Z,54.65
2023-05-02T10:32:33.476Z,55.65
2023-05-02T10:35:04.970Z,53.62
2023-05-02T10:37:35.829Z,52.69
2023-05-02T10:40:03.286Z,53.18
2023-05-02T10:42:30.726Z,52.92
2023-05-02T10:44:58.130Z,52.57
2023-05-02T10:47:27.081Z,51.23
2023-05-02T10:49:54.993Z,52.95
2023-05-02T10:52:33.248Z,53.45
2023-05-02T10:55:22.333Z,52.46
2023-05-02T10:58:00.696Z,52.09
2023-05-02T11:00:32.535Z,52.43
2023-05-02T11:03:00.426Z,52.21
2023-05-02T11:05:28.014Z,52.05
2023-05-02T11:08:17.508Z,52.19
2023-05-02T11:10:47.699Z,52.71
2023-05-02T11:13:14.305Z,51.71
2023-05-02T11:15:40.877Z,51.06
2023-05-02T11:18:12.821Z,50.48
2023-05-02T11:20:44.105Z,50.41
2023-05-02T11:23:22.738Z,50.86
2023-05-02T11:25:50.774Z,49.28
2023-05-02T11:28:44.524Z,50.39
2023-05-02T11:31:29.076Z,48.47
2023-05-02T11:34:03.285Z,48.45
2023-05-02T11:36:34.374Z,48.83
2023-05-02T11:39:02.667Z,50.53
2023-05-02T11:41:42.549Z,49.71
2023-05-02T11:44:09.485Z,48.78
2023-05-02T11:46:40.628Z,49.31
2023-05-02T11:49:09.707Z,48.58
2023-05-02T11:51:37.376Z,48.67
2023-05-02T11:54:04.240Z,48.54
2023-05-02T11:56:31.438Z,48.92
2023-05-02T11:58:59.942Z,48.30
2023-05-02T12:01:26.755Z,47.82
2023-05-02T12:04:04.172Z,47.78
2023-05-02T12:06:30.830Z,47.74
2023-05-02T12:09:12.869Z,48.47
2023-05-02T12:11:39.520Z,48.22
2023-05-02T12:14:06.823Z,48.31
2023-05-02T12:16:34.115Z,47.05
2023-05-02T12:19:01.333Z,47.38
2023-05-02T12:21:29.988Z,47.53
2023-05-02T12:23:57.179Z,47.72
2023-05-02T12:26:25.656Z,47.34
2023-05-02T12:28:54.787Z,47.84
2023-05-02T12:31:22.003Z,47.53
2023-05-02T12:33:50.206Z,47.62
2023-05-02T12:36:17.659Z,47.84
2023-05-02T12:38:59.311Z,47.39
2023-05-02T12:41:33.924Z,48.05
2023-05-02T12:44:01.155Z,48.70
2023-05-02T12:46:28.487Z,50.21
2023-05-02T12:49:09.511Z,50.67
2023-05-02T12:51:37.010Z,51.10
2023-05-02T12:54:04.506Z,50.30
2023-05-02T12:56:38.686Z,48.36
2023-05-02T12:59:05.772Z,48.93
2023-05-02T13:01:34.330Z,47.49
2023-05-02T13:04:01.370Z,47.38
2023-05-02T13:06:27.989Z,47.04
2023-05-02T13:08:54.548Z,46.46
2023-05-02T13:11:21.093Z,46.42
2023-05-02T13:13:47.636Z,44.98
2023-05-02T13:16:14.243Z,45.88
2023-05-02T13:18:40.966Z,46.94
2023-05-02T13:21:07.947Z,46.34
2023-05-02T13:23:34.636Z,46.40
2023-05-02T13:26:01.146Z,45.59
2023-05-02T13:28:29.104Z,44.81
2023-05-02T13:30:55.675Z,45.19
2023-05-02T13:33:22.250Z,43.90
2023-05-02T13:35:48.697Z,43.67
2023-05-02T13:38:15.307Z,44.09
2023-05-02T13:40:41.832Z,45.25
2023-05-02T13:43:08.549Z,46.88
2023-05-02T13:45:35.492Z,45.90
2023-05-02T13:48:02.149Z,46.01
2023-05-02T13:50:28.820Z,45.41
2023-05-02T13:52:55.398Z,45.01
2023-05-02T13:55:22.422Z,43.12
2023-05-02T13:57:49.825Z,44.11
2023-05-02T14:00:16.900Z,44.92
2023-05-02T14:02:46.910Z,45.56
2023-05-02T14:05:13.616Z,45.80
2023-05-02T14:07:40.312Z,43.51
2023-05-02T14:10:07.490Z,43.46
2023-05-02T14:12:34.065Z,43.70
2023-05-02T14:15:00.720Z,43.98
2023-05-02T14:17:27.301Z,44.90
2023-05-02T14:19:53.844Z,43.30
2023-05-02T14:22:20.684Z,44.45
2023-05-02T14:24:47.436Z,44.97
2023-05-02T14:27:18.205Z,44.50
2023-05-02T14:29:48.188Z,43.97
2023-05-02T14:32:15.296Z,43.94
2023-05-02T14:34:42.040Z,44.80
2023-05-02T14:37:11.813Z,45.91
2023-05-02T14:39:40.122Z,46.67
2023-05-02T14:42:06.694Z,47.30
2023-05-02T14:44:33.221Z,46.78
2023-05-02T14:46:59.768Z,45.99
2023-05-02T14:49:27.348Z,47.28
2023-05-02T14:51:55.634Z,46.11
2023-05-02T14:54:28.551Z,44.89
2023-05-02T14:56:55.135Z,45.30
2023-05-02T14:59:21.873Z,44.49
2023-05-02T15:01:49.160Z,43.79
2023-05-02T15:04:17.993Z,45.11
2023-05-02T15:06:45.181Z,45.35
2023-05-02T15:09:12.800Z,45.20
2023-05-02T15:11:39.513Z,45.65
2023-05-02T15:14:06.026Z,45.20
2023-05-02T15:16:32.610Z,45.97
2023-05-02T15:18:59.193Z,45.63
2023-05-02T15:21:25.825Z,45.46
2023-05-02T15:23:52.344Z,45.07
2023-05-02T15:26:18.856Z,45.30
2023-05-02T15:28:45.786Z,45.65
2023-05-02T15:31:12.277Z,45.65
2023-05-02T15:33:38.906Z,45.95
2023-05-02T15:36:05.694Z,45.94
2023-05-02T15:38:34.053Z,46.17
2023-05-02T15:41:00.690Z,46.29
2023-05-02T15:43:27.824Z,46.37
2023-05-02T15:45:56.415Z,46.98
2023-05-02T15:48:24.178Z,48.09
2023-05-02T15:50:52.363Z,48.60
2023-05-02T15:53:22.085Z,48.74
2023-05-02T15:55:49.761Z,48.51
2023-05-02T15:58:16.529Z,48.99
2023-05-02T16:00:43.776Z,49.20
2023-05-02T16:03:12.292Z,49.74
2023-05-02T16:05:39.748Z,49.42
2023-05-02T16:08:06.333Z,48.29
2023-05-02T16:10:33.043Z,48.29
2023-05-02T16:12:59.690Z,48.33
2023-05-02T16:15:26.606Z,47.41
2023-05-02T16:17:53.265Z,47.12
2023-05-02T16:20:19.841Z,46.52
2023-05-02T16:22:47.664Z,47.08
2023-05-02T16:25:16.129Z,47.79
2023-05-02T16:27:42.889Z,47.09
2023-05-02T16:30:09.756Z,48.06
2023-05-02T16:32:40.921Z,48.11
2023-05-02T16:35:10.700Z,48.93
2023-05-02T16:37:37.454Z,50.03
2023-05-02T16:40:06.032Z,51.18
2023-05-02T16:42:33.081Z,51.73
2023-05-02T16:44:59.784Z,52.33
2023-05-02T16:47:26.947Z,52.85
2023-05-02T16:49:57.701Z,52.71
2023-05-02T16:52:24.952Z,53.12
2023-05-02T16:54:52.101Z,54.07
2023-05-02T16:57:19.958Z,53.55
2023-05-02T16:59:51.252Z,53.87
2023-05-02T17:02:22.572Z,54.48
2023-05-02T17:04:50.077Z,54.37
2023-05-02T17:07:17.343Z,54.46
2023-05-02T17:09:44.621Z,55.01
2023-05-02T17:12:12.205Z,54.47
2023-05-02T17:14:42.395Z,54.68
2023-05-02T17:17:10.291Z,53.37
2023-05-02T17:19:37.391Z,54.14
2023-05-02T17:22:05.089Z,54.80
2023-05-02T17:24:32.477Z,54.89
2023-05-02T17:26:59.363Z,54.43
2023-05-02T17:29:25.930Z,55.04
2023-05-02T17:31:52.561Z,54.86
2023-05-02T17:34:19.088Z,54.95
2023-05-02T17:36:46.360Z,55.44
2023-05-02T17:39:13.483Z,56.26
2023-05-02T17:41:40.132Z,56.51
2023-05-02T17:44:09.596Z,56.44
2023-05-02T17:46:37.629Z,57.13
2023-05-02T17:49:04.519Z,57.53
2023-05-02T17:51:33.669Z,57.49
2023-05-02T17:54:00.701Z,57.43
2023-05-02T17:56:27.448Z,58.54
2023-05-02T17:58:54.221Z,58.34
2023-05-02T18:01:20.836Z,58.82
2023-05-02T18:03:48.239Z,58.10
2023-05-02T18:06:16.701Z,58.71
2023-05-02T18:08:43.921Z,58.99
2023-05-02T18:11:15.557Z,58.86
2023-05-02T18:13:42.225Z,58.97
2023-05-02T18:16:08.898Z,58.65
2023-05-02T18:18:36.506Z,58.88
2023-05-02T18:21:03.593Z,59.55
2023-05-02T18:23:30.143Z,58.95
2023-05-02T18:25:56.733Z,59.65
2023-05-02T18:28:23.231Z,59.41
2023-05-02T18:30:49.668Z,58.38
2023-05-02T18:33:16.220Z,58.06
2023-05-02T18:35:47.578Z,57.99
2023-05-02T18:38:14.388Z,58.42
2023-05-02T18:40:41.202Z,59.16
2023-05-02T18:43:07.723Z,58.84
2023-05-02T18:45:35.748Z,58.62
2023-05-02T18:48:03.397Z,58.82
2023-05-02T18:50:30.115Z,59.38
2023-05-02T18:52:56.670Z,59.04
2023-05-02T18:55:25.252Z,58.92
2023-05-02T18:57:52.258Z,59.30
2023-05-02T19:00:20.398Z,59.90
2023-05-02T19:02:47.823Z,60.11
2023-05-02T19:05:15.141Z,59.15
2023-05-02T19:07:42.385Z,59.35
2023-05-02T19:10:10.942Z,59.28
2023-05-02T19:12:37.525Z,60.07
2023-05-02T19:15:06.438Z,59.13
2023-05-02T19:17:33.411Z,59.00
2023-05-02T19:19:59.965Z,59.27
2023-05-02T19:22:27.698Z,59.12
2023-05-02T19:24:54.382Z,57.91
2023-05-02T19:27:21.019Z,58.99
2023-05-02T19:29:47.632Z,58.60
2023-05-02T19:32:14.734Z,58.41
2023-05-02T19:34:41.607Z,58.78
2023-05-02T19:37:08.230Z,58.35
2023-05-02T19:39:34.760Z,58.95
2023-05-02T19:42:03.060Z,58.91
2023-05-02T19:44:29.952Z,58.58
2023-05-02T19:46:56.419Z,58.50
2023-05-02T19:49:22.981Z,58.75
2023-05-02T19:51:49.839Z,58.99
2023-05-02T19:54:16.447Z,59.11
2023-05-02T19:56:43.328Z,59.67
2023-05-02T19:59:09.910Z,59.25
2023-05-02T20:01:36.526Z,59.85
2023-05-02T20:04:03.243Z,59.99
2023-05-02T20:06:31.470Z,59.94
2023-05-02T20:08:58.196Z,60.01
2023-05-02T20:11:25.779Z,59.98
2023-05-02T20:13:52.307Z,59.69
2023-05-02T20:16:18.855Z,60.30
2023-05-02T20:18:45.460Z,59.73
2023-05-02T20:21:12.057Z,59.96
2023-05-02T20:23:40.185Z,59.76
2023-05-02T20:26:06.869Z,59.63
2023-05-02T20:28:33.527Z,60.07
2023-05-02T20:31:01.965Z,59.33
2023-05-02T20:33:41.254Z,59.82
2023-05-02T20:36:12.652Z,59.81
2023-05-02T20:38:42.331Z,59.78
2023-05-02T20:41:13.166Z,59.84
2023-05-02T20:43:41.235Z,60.87
2023-05-02T20:46:12.624Z,60.26
2023-05-02T20:48:39.656Z,60.58
2023-05-02T20:51:06.722Z,61.29
2023-05-02T20:53:33.352Z,61.66
2023-05-02T20:55:59.917Z,62.06
2023-05-02T20:58:26.781Z,62.63
2023-05-02T21:00:54.128Z,62.65
2023-05-02T21:03:21.611Z,62.53
2023-05-02T21:05:52.718Z,62.46
2023-05-02T21:08:19.617Z,62.85
2023-05-02T21:10:46.540Z,62.92
2023-05-02T21:13:13.544Z,62.68
2023-05-02T21:15:40.588Z,63.08
2023-05-02T21:18:07.486Z,63.40
2023-05-02T21:20:34.822Z,63.66
2023-05-02T21:23:02.331Z,63.67
2023-05-02T21:25:28.889Z,64.07
2023-05-02T21:27:56.649Z,64.38
2023-05-02T21:30:24.543Z,64.88
2023-05-02T21:32:51.341Z,65.07
2023-05-02T21:35:17.878Z,65.09
2023-05-02T21:37:44.426Z,66.06
2023-05-02T21:40:11.463Z,66.08
2023-05-02T21:42:38.489Z,66.39
2023-05-02T21:45:05.882Z,66.87
2023-05-02T21:47:32.678Z,66.62
2023-05-02T21:49:59.220Z,67.09
2023-05-02T21:52:25.801Z,67.45
2023-05-02T21:54:52.564Z,67.89
2023-05-02T21:57:19.376Z,67.95
2023-05-02T21:59:46.172Z,68.36
2023-05-02T22:02:12.876Z,67.96
2023-05-02T22:04:39.638Z,68.59
2023-05-02T22:07:06.200Z,69.01
2023-05-02T22:09:33.675Z,68.92
2023-05-02T22:12:00.365Z,68.89
2023-05-02T22:14:33.868Z,69.29
2023-05-02T22:17:08.271Z,69.54
2023-05-02T22:19:34.839Z,69.51
2023-05-02T22:22:05.316Z,69.63
2023-05-02T22:24:31.909Z,69.84
2023-05-02T22:26:58.401Z,69.98
2023-05-02T22:29:25.027Z,70.32
2023-05-02T22:31:52.196Z,70.75
2023-05-02T22:34:19.158Z,70.44
2023-05-02T22:36:45.962Z,70.78
2023-05-02T22:39:14.453Z,70.85
2023-05-02T22:41:44.270Z,71.35
2023-05-02T22:44:11.318Z,71.38
2023-05-02T22:46:39.001Z,71.61
2023-05-02T22:49:10.291Z,72.11
2023-05-02T22:51:39.951Z,72.08
2023-05-02T22:54:08.095Z,72.84
2023-05-02T22:56:34.955Z,72.62
2023-05-02T22:59:01.854Z,72.90
2023-05-02T23:01:28.520Z,73.30
2023-05-02T23:03:55.160Z,73.58
2023-05-02T23:06:21.723Z,73.91
2023-05-02T23:08:48.547Z,73.78
2023-05-02T23:11:15.052Z,74.24
2023-05-02T23:13:41.774Z,73.92
2023-05-02T23:16:08.428Z,74.35
2023-05-02T23:18:34.957Z,74.42
2023-05-02T23:21:04.137Z,74.63
2023-05-02T23:23:30.897Z,75.30
2023-05-02T23:25:57.518Z,75.28
2023-05-02T23:28:24.029Z,75.97
2023-05-02T23:30:50.653Z,76.07
2023-05-02T23:33:17.264Z,76.72
2023-05-02T23:35:43.789Z,76.98
2023-05-02T23:38:10.390Z,77.41
2023-05-02T23:40:36.932Z,77.80
2023-05-02T23:43:03.557Z,77.74
2023-05-02T23:45:30.036Z,77.34
2023-05-02T23:47:56.558Z,77.63
2023-05-02T23:50:23.168Z,78.18
2023-05-02T23:52:49.717Z,77.52
2023-05-02T23:55:16.832Z,77.95
2023-05-02T23:57:43.338Z,78.79
